sensor_id;sensor_type;location;lat;lon;timestamp;temperature;humidity
74661;SHT31;63191;39.566;2.654;2023-02-28T00:01:26;5.28;95.52
74661;SHT31;63191;39.566;2.654;2023-02-28T00:03:52;5.28;95.52
74661;SHT31;63191;39.566;2.654;2023-02-28T00:06:18;5.27;95.50
74661;SHT31;63191;39.566;2.654;2023-02-28T00:08:45;5.28;95.50
74661;SHT31;63191;39.566;2.654;2023-02-28T00:11:12;5.30;95.51
74661;SHT31;63191;39.566;2.654;2023-02-28T00:13:41;5.34;95.57
74661;SHT31;63191;39.566;2.654;2023-02-28T00:16:17;5.36;95.60
74661;SHT31;63191;39.566;2.654;2023-02-28T00:18:47;5.37;95.62
74661;SHT31;63191;39.566;2.654;2023-02-28T00:21:14;5.40;95.60
74661;SHT31;63191;39.566;2.654;2023-02-28T00:23:42;5.42;95.60
74661;SHT31;63191;39.566;2.654;2023-02-28T00:26:08;5.42;95.58
74661;SHT31;63191;39.566;2.654;2023-02-28T00:28:33;5.42;95.56
74661;SHT31;63191;39.566;2.654;2023-02-28T00:30:59;5.42;95.58
74661;SHT31;63191;39.566;2.654;2023-02-28T00:33:26;5.43;95.59
74661;SHT31;63191;39.566;2.654;2023-02-28T00:36:00;5.45;95.59
74661;SHT31;63191;39.566;2.654;2023-02-28T00:38:29;5.45;95.54
74661;SHT31;63191;39.566;2.654;2023-02-28T00:40:54;5.46;95.57
74661;SHT31;63191;39.566;2.654;2023-02-28T00:43:20;5.45;95.52
74661;SHT31;63191;39.566;2.654;2023-02-28T00:45:46;5.46;95.53
74661;SHT31;63191;39.566;2.654;2023-02-28T00:48:12;5.45;95.48
74661;SHT31;63191;39.566;2.654;2023-02-28T00:50:37;5.46;95.43
74661;SHT31;63191;39.566;2.654;2023-02-28T00:53:03;5.46;95.40
74661;SHT31;63191;39.566;2.654;2023-02-28T00:55:29;5.46;95.43
74661;SHT31;63191;39.566;2.654;2023-02-28T00:57:54;5.46;95.40
74661;SHT31;63191;39.566;2.654;2023-02-28T01:00:20;5.49;95.40
74661;SHT31;63191;39.566;2.654;2023-02-28T01:02:46;5.56;95.41
74661;SHT31;63191;39.566;2.654;2023-02-28T01:05:12;5.60;95.43
74661;SHT31;63191;39.566;2.654;2023-02-28T01:07:37;5.61;95.43
74661;SHT31;63191;39.566;2.654;2023-02-28T01:10:03;5.64;95.46
74661;SHT31;63191;39.566;2.654;2023-02-28T01:12:30;5.62;95.38
74661;SHT31;63191;39.566;2.654;2023-02-28T01:14:55;5.60;95.23
74661;SHT31;63191;39.566;2.654;2023-02-28T01:17:22;5.60;95.18
74661;SHT31;63191;39.566;2.654;2023-02-28T01:19:52;5.61;95.13
74661;SHT31;63191;39.566;2.654;2023-02-28T01:22:20;5.60;95.09
74661;SHT31;63191;39.566;2.654;2023-02-28T01:24:46;5.55;94.94
74661;SHT31;63191;39.566;2.654;2023-02-28T01:27:13;5.56;94.93
74661;SHT31;63191;39.566;2.654;2023-02-28T01:29:38;5.60;95.00
74661;SHT31;63191;39.566;2.654;2023-02-28T01:32:04;5.62;95.05
74661;SHT31;63191;39.566;2.654;2023-02-28T01:34:30;5.65;95.11
74661;SHT31;63191;39.566;2.654;2023-02-28T01:36:56;5.67;95.22
74661;SHT31;63191;39.566;2.654;2023-02-28T01:39:24;5.69;95.27
74661;SHT31;63191;39.566;2.654;2023-02-28T01:41:51;5.73;95.30
74661;SHT31;63191;39.566;2.654;2023-02-28T01:47:35;5.76;95.36
74661;SHT31;63191;39.566;2.654;2023-02-28T01:50:06;5.75;95.39
74661;SHT31;63191;39.566;2.654;2023-02-28T01:52:41;5.69;95.35
74661;SHT31;63191;39.566;2.654;2023-02-28T01:55:10;5.68;95.30
74661;SHT31;63191;39.566;2.654;2023-02-28T01:57:42;5.68;95.33
74661;SHT31;63191;39.566;2.654;2023-02-28T02:00:14;5.71;95.38
74661;SHT31;63191;39.566;2.654;2023-02-28T02:02:43;5.74;95.41
74661;SHT31;63191;39.566;2.654;2023-02-28T02:05:17;5.72;95.40
74661;SHT31;63191;39.566;2.654;2023-02-28T02:07:49;5.71;95.36
74661;SHT31;63191;39.566;2.654;2023-02-28T02:10:21;5.72;95.35
74661;SHT31;63191;39.566;2.654;2023-02-28T02:24:52;5.69;95.32
74661;SHT31;63191;39.566;2.654;2023-02-28T02:30:59;5.68;95.30
74661;SHT31;63191;39.566;2.654;2023-02-28T02:42:55;5.60;95.30
74661;SHT31;63191;39.566;2.654;2023-02-28T02:45:31;5.57;95.30
74661;SHT31;63191;39.566;2.654;2023-02-28T02:48:32;5.56;95.30
74661;SHT31;63191;39.566;2.654;2023-02-28T02:51:03;5.56;95.30
74661;SHT31;63191;39.566;2.654;2023-02-28T02:53:56;5.59;95.33
74661;SHT31;63191;39.566;2.654;2023-02-28T02:56:48;5.61;95.40
74661;SHT31;63191;39.566;2.654;2023-02-28T02:59:16;5.58;95.36
74661;SHT31;63191;39.566;2.654;2023-02-28T03:01:48;5.58;95.40
74661;SHT31;63191;39.566;2.654;2023-02-28T03:04:22;5.59;95.39
74661;SHT31;63191;39.566;2.654;2023-02-28T03:06:51;5.57;95.33
74661;SHT31;63191;39.566;2.654;2023-02-28T03:09:21;5.56;95.31
74661;SHT31;63191;39.566;2.654;2023-02-28T03:11:54;5.58;95.41
74661;SHT31;63191;39.566;2.654;2023-02-28T03:17:00;5.61;95.50
74661;SHT31;63191;39.566;2.654;2023-02-28T03:34:17;5.62;95.50
74661;SHT31;63191;39.566;2.654;2023-02-28T03:36:53;5.61;95.50
74661;SHT31;63191;39.566;2.654;2023-02-28T03:42:18;5.63;95.52
74661;SHT31;63191;39.566;2.654;2023-02-28T03:44:52;5.64;95.59
74661;SHT31;63191;39.566;2.654;2023-02-28T03:47:31;5.62;95.61
74661;SHT31;63191;39.566;2.654;2023-02-28T03:50:15;5.59;95.66
74661;SHT31;63191;39.566;2.654;2023-02-28T03:52:49;5.55;95.70
74661;SHT31;63191;39.566;2.654;2023-02-28T03:55:26;5.51;95.70
74661;SHT31;63191;39.566;2.654;2023-02-28T04:01:07;5.47;95.77
74661;SHT31;63191;39.566;2.654;2023-02-28T04:03:49;5.45;95.79
74661;SHT31;63191;39.566;2.654;2023-02-28T04:06:16;5.43;95.80
74661;SHT31;63191;39.566;2.654;2023-02-28T04:08:45;5.42;95.80
74661;SHT31;63191;39.566;2.654;2023-02-28T04:11:17;5.39;95.79
74661;SHT31;63191;39.566;2.654;2023-02-28T04:13:48;5.32;95.72
74661;SHT31;63191;39.566;2.654;2023-02-28T04:16:14;5.30;95.70
74661;SHT31;63191;39.566;2.654;2023-02-28T04:18:40;5.29;95.70
74661;SHT31;63191;39.566;2.654;2023-02-28T04:21:08;5.29;95.70
74661;SHT31;63191;39.566;2.654;2023-02-28T04:23:35;5.30;95.79
74661;SHT31;63191;39.566;2.654;2023-02-28T04:26:01;5.32;95.80
74661;SHT31;63191;39.566;2.654;2023-02-28T04:28:27;5.34;95.81
74661;SHT31;63191;39.566;2.654;2023-02-28T04:30:56;5.34;95.76
74661;SHT31;63191;39.566;2.654;2023-02-28T04:33:29;5.36;95.70
74661;SHT31;63191;39.566;2.654;2023-02-28T04:36:00;5.37;95.70
74661;SHT31;63191;39.566;2.654;2023-02-28T04:38:29;5.38;95.79
74661;SHT31;63191;39.566;2.654;2023-02-28T04:40:59;5.40;95.81
74661;SHT31;63191;39.566;2.654;2023-02-28T04:43:26;5.44;95.81
74661;SHT31;63191;39.566;2.654;2023-02-28T04:45:53;5.45;95.80
74661;SHT31;63191;39.566;2.654;2023-02-28T04:48:24;5.44;95.80
74661;SHT31;63191;39.566;2.654;2023-02-28T04:50:52;5.42;95.79
74661;SHT31;63191;39.566;2.654;2023-02-28T04:53:18;5.42;95.79
74661;SHT31;63191;39.566;2.654;2023-02-28T04:55:44;5.44;95.80
74661;SHT31;63191;39.566;2.654;2023-02-28T04:58:11;5.44;95.79
74661;SHT31;63191;39.566;2.654;2023-02-28T05:00:39;5.42;95.76
74661;SHT31;63191;39.566;2.654;2023-02-28T05:03:05;5.42;95.78
74661;SHT31;63191;39.566;2.654;2023-02-28T05:05:30;5.44;95.80
74661;SHT31;63191;39.566;2.654;2023-02-28T05:07:56;5.46;95.87
74661;SHT31;63191;39.566;2.654;2023-02-28T05:10:22;5.46;95.89
74661;SHT31;63191;39.566;2.654;2023-02-28T05:12:48;5.47;95.90
74661;SHT31;63191;39.566;2.654;2023-02-28T05:15:15;5.48;95.98
74661;SHT31;63191;39.566;2.654;2023-02-28T05:17:42;5.49;95.99
74661;SHT31;63191;39.566;2.654;2023-02-28T05:20:08;5.48;95.98
74661;SHT31;63191;39.566;2.654;2023-02-28T05:22:41;5.47;96.00
74661;SHT31;63191;39.566;2.654;2023-02-28T05:25:10;5.47;96.04
74661;SHT31;63191;39.566;2.654;2023-02-28T05:27:40;5.46;96.07
74661;SHT31;63191;39.566;2.654;2023-02-28T05:30:07;5.44;96.08
74661;SHT31;63191;39.566;2.654;2023-02-28T05:32:39;5.43;96.09
74661;SHT31;63191;39.566;2.654;2023-02-28T05:35:10;5.43;96.12
74661;SHT31;63191;39.566;2.654;2023-02-28T05:37:37;5.40;96.20
74661;SHT31;63191;39.566;2.654;2023-02-28T05:40:04;5.37;96.26
74661;SHT31;63191;39.566;2.654;2023-02-28T05:42:35;5.35;96.34
74661;SHT31;63191;39.566;2.654;2023-02-28T05:45:02;5.35;96.47
74661;SHT31;63191;39.566;2.654;2023-02-28T05:47:29;5.33;96.61
74661;SHT31;63191;39.566;2.654;2023-02-28T05:49:56;5.25;96.70
74661;SHT31;63191;39.566;2.654;2023-02-28T05:52:22;5.19;96.72
74661;SHT31;63191;39.566;2.654;2023-02-28T05:54:48;5.18;96.80
74661;SHT31;63191;39.566;2.654;2023-02-28T05:57:15;5.19;96.90
74661;SHT31;63191;39.566;2.654;2023-02-28T05:59:41;5.26;96.96
74661;SHT31;63191;39.566;2.654;2023-02-28T06:02:10;5.34;97.11
74661;SHT31;63191;39.566;2.654;2023-02-28T06:04:39;5.41;97.25
74661;SHT31;63191;39.566;2.654;2023-02-28T06:07:06;5.51;97.36
74661;SHT31;63191;39.566;2.654;2023-02-28T06:09:33;5.59;97.43
74661;SHT31;63191;39.566;2.654;2023-02-28T06:11:59;5.62;97.50
74661;SHT31;63191;39.566;2.654;2023-02-28T06:14:28;5.64;97.48
74661;SHT31;63191;39.566;2.654;2023-02-28T06:16:56;5.65;97.50
74661;SHT31;63191;39.566;2.654;2023-02-28T06:19:23;5.68;97.50
74661;SHT31;63191;39.566;2.654;2023-02-28T06:21:51;5.72;97.53
74661;SHT31;63191;39.566;2.654;2023-02-28T06:24:21;5.75;97.59
74661;SHT31;63191;39.566;2.654;2023-02-28T06:26:48;5.77;97.60
74661;SHT31;63191;39.566;2.654;2023-02-28T06:29:15;5.80;97.60
74661;SHT31;63191;39.566;2.654;2023-02-28T06:31:44;5.81;97.60
74661;SHT31;63191;39.566;2.654;2023-02-28T06:34:12;5.81;97.59
74661;SHT31;63191;39.566;2.654;2023-02-28T06:36:40;5.80;97.60
74661;SHT31;63191;39.566;2.654;2023-02-28T06:39:10;5.82;97.58
74661;SHT31;63191;39.566;2.654;2023-02-28T06:41:36;5.80;97.59
74661;SHT31;63191;39.566;2.654;2023-02-28T06:44:05;5.80;97.52
74661;SHT31;63191;39.566;2.654;2023-02-28T06:46:40;5.79;97.50
74661;SHT31;63191;39.566;2.654;2023-02-28T06:49:08;5.81;97.50
74661;SHT31;63191;39.566;2.654;2023-02-28T06:51:35;5.80;97.49
74661;SHT31;63191;39.566;2.654;2023-02-28T06:54:04;5.80;97.45
74661;SHT31;63191;39.566;2.654;2023-02-28T06:56:34;5.77;97.40
74661;SHT31;63191;39.566;2.654;2023-02-28T06:59:00;5.75;97.37
74661;SHT31;63191;39.566;2.654;2023-02-28T07:01:27;5.72;97.30
74661;SHT31;63191;39.566;2.654;2023-02-28T07:03:54;5.71;97.29
74661;SHT31;63191;39.566;2.654;2023-02-28T07:06:23;5.70;97.20
74661;SHT31;63191;39.566;2.654;2023-02-28T07:08:51;5.69;97.18
74661;SHT31;63191;39.566;2.654;2023-02-28T07:11:20;5.70;97.10
74661;SHT31;63191;39.566;2.654;2023-02-28T07:13:51;5.72;97.10
74661;SHT31;63191;39.566;2.654;2023-02-28T07:16:18;5.73;97.11
74661;SHT31;63191;39.566;2.654;2023-02-28T07:18:47;5.75;97.11
74661;SHT31;63191;39.566;2.654;2023-02-28T07:21:13;5.73;97.08
74661;SHT31;63191;39.566;2.654;2023-02-28T07:23:40;5.73;97.00
74661;SHT31;63191;39.566;2.654;2023-02-28T07:26:11;5.71;96.93
74661;SHT31;63191;39.566;2.654;2023-02-28T07:28:43;5.68;96.90
74661;SHT31;63191;39.566;2.654;2023-02-28T07:31:13;5.68;96.89
74661;SHT31;63191;39.566;2.654;2023-02-28T07:33:41;5.65;96.85
74661;SHT31;63191;39.566;2.654;2023-02-28T07:36:14;5.65;96.81
74661;SHT31;63191;39.566;2.654;2023-02-28T07:38:47;5.66;96.80
74661;SHT31;63191;39.566;2.654;2023-02-28T07:41:18;5.66;96.79
74661;SHT31;63191;39.566;2.654;2023-02-28T07:43:46;5.68;96.81
74661;SHT31;63191;39.566;2.654;2023-02-28T07:46:13;5.72;96.89
74661;SHT31;63191;39.566;2.654;2023-02-28T07:48:42;5.76;96.93
74661;SHT31;63191;39.566;2.654;2023-02-28T07:51:08;5.84;97.00
74661;SHT31;63191;39.566;2.654;2023-02-28T07:53:34;5.89;97.07
74661;SHT31;63191;39.566;2.654;2023-02-28T07:56:01;5.93;97.09
74661;SHT31;63191;39.566;2.654;2023-02-28T07:58:28;5.93;97.03
74661;SHT31;63191;39.566;2.654;2023-02-28T08:00:55;5.94;96.96
74661;SHT31;63191;39.566;2.654;2023-02-28T08:03:22;5.97;96.90
74661;SHT31;63191;39.566;2.654;2023-02-28T08:05:49;5.99;96.90
74661;SHT31;63191;39.566;2.654;2023-02-28T08:08:15;6.04;96.97
74661;SHT31;63191;39.566;2.654;2023-02-28T08:10:42;6.12;97.02
74661;SHT31;63191;39.566;2.654;2023-02-28T08:13:08;6.19;97.09
74661;SHT31;63191;39.566;2.654;2023-02-28T08:15:34;6.28;97.14
74661;SHT31;63191;39.566;2.654;2023-02-28T08:18:01;6.39;97.19
74661;SHT31;63191;39.566;2.654;2023-02-28T08:20:27;6.51;97.26
74661;SHT31;63191;39.566;2.654;2023-02-28T08:22:53;6.64;97.31
74661;SHT31;63191;39.566;2.654;2023-02-28T08:25:19;6.76;97.31
74661;SHT31;63191;39.566;2.654;2023-02-28T08:27:46;6.84;97.30
74661;SHT31;63191;39.566;2.654;2023-02-28T08:30:12;6.92;97.28
74661;SHT31;63191;39.566;2.654;2023-02-28T08:32:40;6.97;97.21
74661;SHT31;63191;39.566;2.654;2023-02-28T08:35:06;7.00;97.17
74661;SHT31;63191;39.566;2.654;2023-02-28T08:37:34;7.03;97.09
74661;SHT31;63191;39.566;2.654;2023-02-28T08:40:02;7.06;97.02
74661;SHT31;63191;39.566;2.654;2023-02-28T08:42:29;7.09;97.00
74661;SHT31;63191;39.566;2.654;2023-02-28T08:44:55;7.16;96.96
74661;SHT31;63191;39.566;2.654;2023-02-28T08:47:21;7.24;96.87
74661;SHT31;63191;39.566;2.654;2023-02-28T08:49:47;7.34;96.77
74661;SHT31;63191;39.566;2.654;2023-02-28T08:52:12;7.45;96.65
74661;SHT31;63191;39.566;2.654;2023-02-28T08:54:39;7.55;96.48
74661;SHT31;63191;39.566;2.654;2023-02-28T08:57:05;7.62;96.28
74661;SHT31;63191;39.566;2.654;2023-02-28T08:59:30;7.73;96.13
74661;SHT31;63191;39.566;2.654;2023-02-28T09:01:57;7.80;95.99
74661;SHT31;63191;39.566;2.654;2023-02-28T09:04:23;7.87;95.86
74661;SHT31;63191;39.566;2.654;2023-02-28T09:06:49;7.90;95.72
74661;SHT31;63191;39.566;2.654;2023-02-28T09:09:15;7.85;95.61
74661;SHT31;63191;39.566;2.654;2023-02-28T09:11:41;7.78;95.44
74661;SHT31;63191;39.566;2.654;2023-02-28T09:14:07;7.79;95.33
74661;SHT31;63191;39.566;2.654;2023-02-28T09:16:33;7.86;95.28
74661;SHT31;63191;39.566;2.654;2023-02-28T09:18:59;7.97;95.13
74661;SHT31;63191;39.566;2.654;2023-02-28T09:21:25;8.15;94.95
74661;SHT31;63191;39.566;2.654;2023-02-28T09:23:52;8.32;94.79
74661;SHT31;63191;39.566;2.654;2023-02-28T09:26:20;8.45;94.73
74661;SHT31;63191;39.566;2.654;2023-02-28T09:28:49;8.52;94.65
74661;SHT31;63191;39.566;2.654;2023-02-28T09:31:18;8.54;94.55
74661;SHT31;63191;39.566;2.654;2023-02-28T09:33:54;8.51;94.47
74661;SHT31;63191;39.566;2.654;2023-02-28T09:36:23;8.47;94.32
74661;SHT31;63191;39.566;2.654;2023-02-28T09:38:50;8.44;94.22
74661;SHT31;63191;39.566;2.654;2023-02-28T09:41:19;8.36;94.08
74661;SHT31;63191;39.566;2.654;2023-02-28T09:43:52;8.30;94.08
74661;SHT31;63191;39.566;2.654;2023-02-28T09:46:38;8.20;94.15
74661;SHT31;63191;39.566;2.654;2023-02-28T09:49:22;8.05;94.05
74661;SHT31;63191;39.566;2.654;2023-02-28T09:52:02;8.01;94.05
74661;SHT31;63191;39.566;2.654;2023-02-28T09:54:36;8.04;94.17
74661;SHT31;63191;39.566;2.654;2023-02-28T09:57:07;8.14;94.25
74661;SHT31;63191;39.566;2.654;2023-02-28T10:05:39;8.40;93.77
74661;SHT31;63191;39.566;2.654;2023-02-28T10:08:14;8.34;93.69
74661;SHT31;63191;39.566;2.654;2023-02-28T10:10:45;8.28;93.78
74661;SHT31;63191;39.566;2.654;2023-02-28T10:16:05;8.23;93.78
74661;SHT31;63191;39.566;2.654;2023-02-28T10:18:58;8.35;93.71
74661;SHT31;63191;39.566;2.654;2023-02-28T10:21:49;8.42;93.53
74661;SHT31;63191;39.566;2.654;2023-02-28T10:24:42;8.50;93.26
74661;SHT31;63191;39.566;2.654;2023-02-28T10:27:20;8.67;93.10
74661;SHT31;63191;39.566;2.654;2023-02-28T10:29:52;9.02;92.82
74661;SHT31;63191;39.566;2.654;2023-02-28T10:32:22;9.45;92.55
74661;SHT31;63191;39.566;2.654;2023-02-28T10:35:15;9.86;91.85
74661;SHT31;63191;39.566;2.654;2023-02-28T10:37:41;10.58;90.97
74661;SHT31;63191;39.566;2.654;2023-02-28T10:42:42;10.78;90.20
74661;SHT31;63191;39.566;2.654;2023-02-28T10:45:21;10.91;89.46
74661;SHT31;63191;39.566;2.654;2023-02-28T10:50:31;10.77;88.94
74661;SHT31;63191;39.566;2.654;2023-02-28T10:55:44;9.84;89.89
74661;SHT31;63191;39.566;2.654;2023-02-28T10:58:23;9.55;90.24
74661;SHT31;63191;39.566;2.654;2023-02-28T11:00:52;9.47;90.30
74661;SHT31;63191;39.566;2.654;2023-02-28T11:03:36;9.76;90.53
74661;SHT31;63191;39.566;2.654;2023-02-28T11:06:10;9.90;90.58
74661;SHT31;63191;39.566;2.654;2023-02-28T11:08:53;9.78;90.38
74661;SHT31;63191;39.566;2.654;2023-02-28T11:11:25;9.64;90.42
74661;SHT31;63191;39.566;2.654;2023-02-28T11:13:55;9.52;90.66
74661;SHT31;63191;39.566;2.654;2023-02-28T11:16:34;9.35;90.88
74661;SHT31;63191;39.566;2.654;2023-02-28T11:19:03;9.18;91.12
74661;SHT31;63191;39.566;2.654;2023-02-28T11:21:33;9.00;91.37
74661;SHT31;63191;39.566;2.654;2023-02-28T11:24:22;8.84;91.54
74661;SHT31;63191;39.566;2.654;2023-02-28T11:27:09;8.72;91.79
74661;SHT31;63191;39.566;2.654;2023-02-28T11:30:27;8.64;91.94
74661;SHT31;63191;39.566;2.654;2023-02-28T11:35:55;8.65;92.20
74661;SHT31;63191;39.566;2.654;2023-02-28T11:38:32;8.62;92.23
74661;SHT31;63191;39.566;2.654;2023-02-28T11:44:03;8.48;92.40
74661;SHT31;63191;39.566;2.654;2023-02-28T11:53:01;8.36;92.40
74661;SHT31;63191;39.566;2.654;2023-02-28T11:55:42;8.42;92.57
74661;SHT31;63191;39.566;2.654;2023-02-28T12:01:38;8.41;92.47
74661;SHT31;63191;39.566;2.654;2023-02-28T12:04:44;8.56;92.34
74661;SHT31;63191;39.566;2.654;2023-02-28T12:20:02;8.84;92.30
74661;SHT31;63191;39.566;2.654;2023-02-28T12:28:45;8.47;92.49
74661;SHT31;63191;39.566;2.654;2023-02-28T12:31:24;8.36;92.50
74661;SHT31;63191;39.566;2.654;2023-02-28T12:34:42;8.25;92.50
74661;SHT31;63191;39.566;2.654;2023-02-28T12:36:53;8.21;92.50
74661;SHT31;63191;39.566;2.654;2023-02-28T12:39:38;8.26;92.61
74661;SHT31;63191;39.566;2.654;2023-02-28T12:42:11;8.40;92.69
74661;SHT31;63191;39.566;2.654;2023-02-28T12:45:05;8.45;92.70
74661;SHT31;63191;39.566;2.654;2023-02-28T12:47:49;8.41;92.77
74661;SHT31;63191;39.566;2.654;2023-02-28T12:50:29;8.34;92.76
74661;SHT31;63191;39.566;2.654;2023-02-28T12:53:06;8.26;92.81
74661;SHT31;63191;39.566;2.654;2023-02-28T13:01:48;8.28;92.91
74661;SHT31;63191;39.566;2.654;2023-02-28T13:04:39;8.44;93.00
74661;SHT31;63191;39.566;2.654;2023-02-28T13:07:40;8.51;92.98
74661;SHT31;63191;39.566;2.654;2023-02-28T13:13:23;9.52;92.44
74661;SHT31;63191;39.566;2.654;2023-02-28T13:15:59;9.72;92.34
74661;SHT31;63191;39.566;2.654;2023-02-28T13:18:45;9.61;92.06
74661;SHT31;63191;39.566;2.654;2023-02-28T13:21:22;9.36;91.75
74661;SHT31;63191;39.566;2.654;2023-02-28T13:39:58;9.91;91.42
74661;SHT31;63191;39.566;2.654;2023-02-28T13:42:54;9.85;91.17
74661;SHT31;63191;39.566;2.654;2023-02-28T13:45:21;9.84;90.92
74661;SHT31;63191;39.566;2.654;2023-02-28T13:47:58;9.93;90.85
74661;SHT31;63191;39.566;2.654;2023-02-28T13:50:43;10.19;90.88
74661;SHT31;63191;39.566;2.654;2023-02-28T14:01:31;10.43;90.61
74661;SHT31;63191;39.566;2.654;2023-02-28T14:07:16;10.87;90.11
74661;SHT31;63191;39.566;2.654;2023-02-28T14:09:58;11.03;90.07
74661;SHT31;63191;39.566;2.654;2023-02-28T14:18:05;10.72;89.33
74661;SHT31;63191;39.566;2.654;2023-02-28T14:30:28;10.03;89.96
74661;SHT31;63191;39.566;2.654;2023-02-28T14:36:18;9.71;90.25
74661;SHT31;63191;39.566;2.654;2023-02-28T14:38:55;9.59;90.55
74661;SHT31;63191;39.566;2.654;2023-02-28T14:41:29;9.48;90.77
74661;SHT31;63191;39.566;2.654;2023-02-28T14:44:13;9.34;90.75
74661;SHT31;63191;39.566;2.654;2023-02-28T14:46:58;9.26;90.96
74661;SHT31;63191;39.566;2.654;2023-02-28T14:49:35;9.19;91.10
74661;SHT31;63191;39.566;2.654;2023-02-28T14:54:43;9.13;91.44
74661;SHT31;63191;39.566;2.654;2023-02-28T14:57:29;9.10;91.62
74661;SHT31;63191;39.566;2.654;2023-02-28T15:03:19;9.01;91.73
74661;SHT31;63191;39.566;2.654;2023-02-28T15:05:54;8.95;91.88
74661;SHT31;63191;39.566;2.654;2023-02-28T15:08:26;8.90;92.00
74661;SHT31;63191;39.566;2.654;2023-02-28T15:13:52;8.84;92.16
74661;SHT31;63191;39.566;2.654;2023-02-28T15:18:57;9.07;92.10
74661;SHT31;63191;39.566;2.654;2023-02-28T15:21:27;9.32;92.15
74661;SHT31;63191;39.566;2.654;2023-02-28T15:24:19;9.59;92.20
74661;SHT31;63191;39.566;2.654;2023-02-28T15:27:06;9.74;92.04
74661;SHT31;63191;39.566;2.654;2023-02-28T15:29:44;9.66;91.79
74661;SHT31;63191;39.566;2.654;2023-02-28T15:35:25;9.35;91.39
74661;SHT31;63191;39.566;2.654;2023-02-28T15:37:56;9.27;91.47
74661;SHT31;63191;39.566;2.654;2023-02-28T15:40:27;9.27;91.58
74661;SHT31;63191;39.566;2.654;2023-02-28T15:43:06;9.27;91.70
74661;SHT31;63191;39.566;2.654;2023-02-28T15:45:51;9.24;91.52
74661;SHT31;63191;39.566;2.654;2023-02-28T15:48:23;9.20;91.41
74661;SHT31;63191;39.566;2.654;2023-02-28T15:54:21;9.31;91.57
74661;SHT31;63191;39.566;2.654;2023-02-28T15:56:33;9.35;91.57
74661;SHT31;63191;39.566;2.654;2023-02-28T15:59:05;9.37;91.53
74661;SHT31;63191;39.566;2.654;2023-02-28T16:01:33;9.38;91.57
74661;SHT31;63191;39.566;2.654;2023-02-28T16:04:11;9.43;91.62
74661;SHT31;63191;39.566;2.654;2023-02-28T16:09:25;9.50;91.70
74661;SHT31;63191;39.566;2.654;2023-02-28T16:11:53;9.51;91.75
74661;SHT31;63191;39.566;2.654;2023-02-28T16:14:25;9.53;91.80
74661;SHT31;63191;39.566;2.654;2023-02-28T16:16:56;9.48;91.74
74661;SHT31;63191;39.566;2.654;2023-02-28T16:19:28;9.42;91.64
74661;SHT31;63191;39.566;2.654;2023-02-28T16:21:56;9.36;91.68
74661;SHT31;63191;39.566;2.654;2023-02-28T16:24:22;9.24;91.57
74661;SHT31;63191;39.566;2.654;2023-02-28T16:26:48;9.16;91.56
74661;SHT31;63191;39.566;2.654;2023-02-28T16:29:23;9.17;91.70
74661;SHT31;63191;39.566;2.654;2023-02-28T16:31:53;9.13;91.85
74661;SHT31;63191;39.566;2.654;2023-02-28T16:34:19;9.03;91.90
74661;SHT31;63191;39.566;2.654;2023-02-28T16:36:48;8.91;92.01
74661;SHT31;63191;39.566;2.654;2023-02-28T16:39:15;8.81;92.15
74661;SHT31;63191;39.566;2.654;2023-02-28T16:41:44;8.69;92.10
74661;SHT31;63191;39.566;2.654;2023-02-28T16:44:44;8.59;92.18
74661;SHT31;63191;39.566;2.654;2023-02-28T16:47:03;8.50;92.40
74661;SHT31;63191;39.566;2.654;2023-02-28T16:49:33;8.44;92.59
74661;SHT31;63191;39.566;2.654;2023-02-28T16:51:59;8.35;92.69
74661;SHT31;63191;39.566;2.654;2023-02-28T16:54:25;8.26;92.71
74661;SHT31;63191;39.566;2.654;2023-02-28T16:56:52;8.19;92.80
74661;SHT31;63191;39.566;2.654;2023-02-28T16:59:20;8.13;92.94
74661;SHT31;63191;39.566;2.654;2023-02-28T17:01:51;8.07;93.09
74661;SHT31;63191;39.566;2.654;2023-02-28T17:04:17;8.02;93.21
74661;SHT31;63191;39.566;2.654;2023-02-28T17:06:43;7.97;93.30
74661;SHT31;63191;39.566;2.654;2023-02-28T17:09:19;7.93;93.41
74661;SHT31;63191;39.566;2.654;2023-02-28T17:11:52;7.89;93.50
74661;SHT31;63191;39.566;2.654;2023-02-28T17:14:18;7.81;93.53
74661;SHT31;63191;39.566;2.654;2023-02-28T17:16:46;7.78;93.69
74661;SHT31;63191;39.566;2.654;2023-02-28T17:19:13;7.77;93.83
74661;SHT31;63191;39.566;2.654;2023-02-28T17:21:41;7.78;93.97
74661;SHT31;63191;39.566;2.654;2023-02-28T17:24:07;7.78;94.08
74661;SHT31;63191;39.566;2.654;2023-02-28T17:26:37;7.78;94.17
74661;SHT31;63191;39.566;2.654;2023-02-28T17:29:11;7.78;94.23
74661;SHT31;63191;39.566;2.654;2023-02-28T17:31:41;7.77;94.30
74661;SHT31;63191;39.566;2.654;2023-02-28T17:34:06;7.77;94.40
74661;SHT31;63191;39.566;2.654;2023-02-28T17:36:33;7.80;94.49
74661;SHT31;63191;39.566;2.654;2023-02-28T17:39:00;7.83;94.58
74661;SHT31;63191;39.566;2.654;2023-02-28T17:41:26;7.83;94.60
74661;SHT31;63191;39.566;2.654;2023-02-28T17:43:54;7.84;94.70
74661;SHT31;63191;39.566;2.654;2023-02-28T17:46:22;7.82;94.71
74661;SHT31;63191;39.566;2.654;2023-02-28T17:48:50;7.79;94.78
74661;SHT31;63191;39.566;2.654;2023-02-28T17:51:18;7.75;94.78
74661;SHT31;63191;39.566;2.654;2023-02-28T17:53:47;7.74;94.80
74661;SHT31;63191;39.566;2.654;2023-02-28T17:56:18;7.75;94.89
74661;SHT31;63191;39.566;2.654;2023-02-28T17:58:48;7.74;94.96
74661;SHT31;63191;39.566;2.654;2023-02-28T18:01:15;7.74;95.03
74661;SHT31;63191;39.566;2.654;2023-02-28T18:03:41;7.74;95.10
74661;SHT31;63191;39.566;2.654;2023-02-28T18:06:11;7.74;95.16
74661;SHT31;63191;39.566;2.654;2023-02-28T18:08:43;7.75;95.20
74661;SHT31;63191;39.566;2.654;2023-02-28T18:11:08;7.78;95.24
74661;SHT31;63191;39.566;2.654;2023-02-28T18:13:52;7.79;95.30
74661;SHT31;63191;39.566;2.654;2023-02-28T18:16:23;7.81;95.34
74661;SHT31;63191;39.566;2.654;2023-02-28T18:18:49;7.81;95.39
74661;SHT31;63191;39.566;2.654;2023-02-28T18:21:15;7.84;95.38
74661;SHT31;63191;39.566;2.654;2023-02-28T18:23:42;7.86;95.40
74661;SHT31;63191;39.566;2.654;2023-02-28T18:26:16;7.89;95.43
74661;SHT31;63191;39.566;2.654;2023-02-28T18:28:43;7.91;95.49
74661;SHT31;63191;39.566;2.654;2023-02-28T18:31:14;7.91;95.50
74661;SHT31;63191;39.566;2.654;2023-02-28T18:33:47;7.90;95.50
74661;SHT31;63191;39.566;2.654;2023-02-28T18:36:14;7.91;95.50
74661;SHT31;63191;39.566;2.654;2023-02-28T18:38:40;7.94;95.51
74661;SHT31;63191;39.566;2.654;2023-02-28T18:41:08;7.95;95.50
74661;SHT31;63191;39.566;2.654;2023-02-28T18:43:35;7.97;95.50
74661;SHT31;63191;39.566;2.654;2023-02-28T18:46:06;7.99;95.50
74661;SHT31;63191;39.566;2.654;2023-02-28T18:48:37;7.98;95.49
74661;SHT31;63191;39.566;2.654;2023-02-28T18:51:07;7.98;95.49
74661;SHT31;63191;39.566;2.654;2023-02-28T18:53:49;7.96;95.50
74661;SHT31;63191;39.566;2.654;2023-02-28T18:56:16;7.96;95.50
74661;SHT31;63191;39.566;2.654;2023-02-28T18:58:45;7.96;95.49
74661;SHT31;63191;39.566;2.654;2023-02-28T19:01:15;7.95;95.45
74661;SHT31;63191;39.566;2.654;2023-02-28T19:03:43;7.95;95.45
74661;SHT31;63191;39.566;2.654;2023-02-28T19:06:10;7.95;95.50
74661;SHT31;63191;39.566;2.654;2023-02-28T19:08:36;7.94;95.50